Airfield :
LOGIN :

Register | Disclaimer

   EN    FR    IT 

 










Legend :    VFR   Marginal VFR   IFR   Intensive IFR   Very Intensive IFR
Visi :
Ceiling :
>= 8 km
>= 3000ft
5 to 8 km
1000 to 3000 ft
1500m to 5 km
500 to 1000 ft
800 to 1500m
200 to 500 ft
< 800m
< 200 ft
Symbols :   Thunderstorms  Fog  Heavy snow  Heavy precipitations  Wind > 20 kt
SIGMETs :     Misc.  Thunderstorms  Icing  Turbulence  Mountain Waves  Volcanic Ashes






- Airport Elevation : 699 ft
- IATA code : PAD


EDLP - Paderborn Lippstadt

CURRENT METAR :
  • 182020Z 24007KT 8000 -SHRA SCT025 SCT030 OVC043 09/06 Q1014

EXPIRED METARs :
  • 181950Z 23003KT 9999 FEW048 08/06 Q1014
  • 181920Z VRB02KT CAVOK 09/06 Q1013
  • 181850Z 26003KT 230V320 CAVOK 09/06 Q1013
  • 181820Z 23003KT 200V270 CAVOK 11/06 Q1013
  • 181750Z VRB02KT CAVOK 11/07 Q1013

TAF TAF EDLP
Valid from the 18 at 18:00 until the 19 at 18:00 UTC


181700Z 1818/1918 25005KT 9999 SCT030
TEMPO 1909/1918 SHRA BKN020CB
PROB30
TEMPO 1912/1918 26012KT 4000 TSRA



MET'MAP, your aeronautical weather chart ! - Copyright ORBIFLY December 2007 - Disclaimer

ORBIFLY MET'MAP TEAM :

Programming & Development : Alexandra Zaïnal
Concept & original design : Baudouin d'Aumeries
Assistance for programming : Marc-Olivier Méhu
Technical & hardware support : Manuel Goepfert

Contact : metmap@orbifly.com




SOURCES & CREDITS :

   NOAA